sensor_id;sensor_type;location;lat;lon;timestamp;P1;durP1;ratioP1;P2;durP2;ratioP2
57667;SDS011;43499;52.366;12.912;2023-09-18T00:00:53;7.10;;;3.85;;
57667;SDS011;43499;52.366;12.912;2023-09-18T00:01:56;3.97;;;3.13;;
57667;SDS011;43499;52.366;12.912;2023-09-18T00:02:57;6.13;;;3.30;;
57667;SDS011;43499;52.366;12.912;2023-09-18T00:03:58;6.03;;;3.53;;
57667;SDS011;43499;52.366;12.912;2023-09-18T00:05:00;5.10;;;3.08;;
57667;SDS011;43499;52.366;12.912;2023-09-18T00:06:01;7.97;;;3.35;;
57667;SDS011;43499;52.366;12.912;2023-09-18T00:07:02;4.32;;;3.42;;
57667;SDS011;43499;52.366;12.912;2023-09-18T00:08:03;5.13;;;3.65;;
57667;SDS011;43499;52.366;12.912;2023-09-18T00:10:07;5.45;;;3.35;;
57667;SDS011;43499;52.366;12.912;2023-09-18T00:11:08;4.57;;;3.05;;
57667;SDS011;43499;52.366;12.912;2023-09-18T00:12:10;4.63;;;3.47;;
57667;SDS011;43499;52.366;12.912;2023-09-18T00:13:11;4.43;;;2.95;;
57667;SDS011;43499;52.366;12.912;2023-09-18T00:14:12;3.65;;;3.00;;
57667;SDS011;43499;52.366;12.912;2023-09-18T00:15:13;4.85;;;3.60;;
57667;SDS011;43499;52.366;12.912;2023-09-18T00:16:15;3.78;;;3.35;;
57667;SDS011;43499;52.366;12.912;2023-09-18T00:17:16;4.50;;;3.55;;
57667;SDS011;43499;52.366;12.912;2023-09-18T00:18:20;4.45;;;3.20;;
57667;SDS011;43499;52.366;12.912;2023-09-18T00:19:21;6.40;;;3.63;;
57667;SDS011;43499;52.366;12.912;2023-09-18T00:20:22;4.07;;;3.40;;
57667;SDS011;43499;52.366;12.912;2023-09-18T00:21:28;4.80;;;3.40;;
57667;SDS011;43499;52.366;12.912;2023-09-18T00:22:31;4.03;;;3.35;;
57667;SDS011;43499;52.366;12.912;2023-09-18T00:23:32;6.05;;;3.75;;
57667;SDS011;43499;52.366;12.912;2023-09-18T00:24:36;4.55;;;3.10;;
57667;SDS011;43499;52.366;12.912;2023-09-18T00:25:37;3.90;;;3.20;;
57667;SDS011;43499;52.366;12.912;2023-09-18T00:26:38;3.75;;;2.80;;
57667;SDS011;43499;52.366;12.912;2023-09-18T00:27:39;4.20;;;2.70;;
57667;SDS011;43499;52.366;12.912;2023-09-18T00:28:40;4.32;;;3.20;;
57667;SDS011;43499;52.366;12.912;2023-09-18T00:29:42;4.90;;;2.83;;
57667;SDS011;43499;52.366;12.912;2023-09-18T00:30:46;3.72;;;3.30;;
57667;SDS011;43499;52.366;12.912;2023-09-18T00:31:50;7.35;;;3.20;;
57667;SDS011;43499;52.366;12.912;2023-09-18T00:32:51;3.13;;;2.83;;
57667;SDS011;43499;52.366;12.912;2023-09-18T00:33:52;3.28;;;2.97;;
57667;SDS011;43499;52.366;12.912;2023-09-18T00:34:53;4.00;;;3.00;;
57667;SDS011;43499;52.366;12.912;2023-09-18T00:35:55;3.58;;;2.63;;
57667;SDS011;43499;52.366;12.912;2023-09-18T00:36:56;4.63;;;2.70;;
57667;SDS011;43499;52.366;12.912;2023-09-18T00:37:58;4.18;;;2.50;;
57667;SDS011;43499;52.366;12.912;2023-09-18T00:38:59;4.43;;;2.35;;
57667;SDS011;43499;52.366;12.912;2023-09-18T00:40:00;4.75;;;2.97;;
57667;SDS011;43499;52.366;12.912;2023-09-18T00:41:01;4.53;;;3.20;;
57667;SDS011;43499;52.366;12.912;2023-09-18T00:42:03;3.65;;;3.20;;
57667;SDS011;43499;52.366;12.912;2023-09-18T00:43:04;3.35;;;2.92;;
57667;SDS011;43499;52.366;12.912;2023-09-18T00:44:05;3.88;;;3.10;;
57667;SDS011;43499;52.366;12.912;2023-09-18T00:45:06;5.43;;;2.90;;
57667;SDS011;43499;52.366;12.912;2023-09-18T00:46:09;4.65;;;2.72;;
57667;SDS011;43499;52.366;12.912;2023-09-18T00:47:10;4.75;;;3.83;;
57667;SDS011;43499;52.366;12.912;2023-09-18T00:48:14;4.60;;;2.63;;
57667;SDS011;43499;52.366;12.912;2023-09-18T00:49:16;4.32;;;2.78;;
57667;SDS011;43499;52.366;12.912;2023-09-18T00:50:19;3.95;;;2.97;;
57667;SDS011;43499;52.366;12.912;2023-09-18T00:51:22;6.93;;;3.20;;
57667;SDS011;43499;52.366;12.912;2023-09-18T00:52:24;2.92;;;2.40;;
57667;SDS011;43499;52.366;12.912;2023-09-18T00:53:25;4.57;;;3.40;;
57667;SDS011;43499;52.366;12.912;2023-09-18T00:54:27;3.03;;;2.78;;
57667;SDS011;43499;52.366;12.912;2023-09-18T00:56:32;6.28;;;3.08;;
57667;SDS011;43499;52.366;12.912;2023-09-18T00:57:33;7.72;;;2.63;;
57667;SDS011;43499;52.366;12.912;2023-09-18T00:58:35;3.75;;;2.80;;
57667;SDS011;43499;52.366;12.912;2023-09-18T00:59:37;4.43;;;2.80;;
57667;SDS011;43499;52.366;12.912;2023-09-18T01:00:39;3.30;;;2.67;;
57667;SDS011;43499;52.366;12.912;2023-09-18T01:01:41;3.70;;;2.90;;
57667;SDS011;43499;52.366;12.912;2023-09-18T01:03:44;3.17;;;2.75;;
57667;SDS011;43499;52.366;12.912;2023-09-18T01:04:45;3.28;;;2.53;;
57667;SDS011;43499;52.366;12.912;2023-09-18T01:05:47;3.35;;;2.78;;
57667;SDS011;43499;52.366;12.912;2023-09-18T01:06:48;4.28;;;2.80;;
57667;SDS011;43499;52.366;12.912;2023-09-18T01:07:50;5.70;;;2.80;;
57667;SDS011;43499;52.366;12.912;2023-09-18T01:08:52;3.92;;;2.75;;
57667;SDS011;43499;52.366;12.912;2023-09-18T01:09:54;7.35;;;3.47;;
57667;SDS011;43499;52.366;12.912;2023-09-18T01:10:59;5.32;;;2.95;;
57667;SDS011;43499;52.366;12.912;2023-09-18T01:12:19;3.35;;;2.40;;
57667;SDS011;43499;52.366;12.912;2023-09-18T01:13:31;3.15;;;2.60;;
57667;SDS011;43499;52.366;12.912;2023-09-18T01:14:42;3.75;;;2.42;;
57667;SDS011;43499;52.366;12.912;2023-09-18T01:15:52;3.08;;;2.40;;
57667;SDS011;43499;52.366;12.912;2023-09-18T01:16:59;6.90;;;2.47;;
57667;SDS011;43499;52.366;12.912;2023-09-18T01:18:05;4.40;;;2.70;;
57667;SDS011;43499;52.366;12.912;2023-09-18T01:19:06;4.65;;;2.78;;
57667;SDS011;43499;52.366;12.912;2023-09-18T01:20:11;3.78;;;3.20;;
57667;SDS011;43499;52.366;12.912;2023-09-18T01:21:12;3.80;;;2.72;;
57667;SDS011;43499;52.366;12.912;2023-09-18T01:22:14;3.05;;;2.50;;
57667;SDS011;43499;52.366;12.912;2023-09-18T01:23:17;3.58;;;2.83;;
57667;SDS011;43499;52.366;12.912;2023-09-18T01:24:18;5.75;;;3.22;;
57667;SDS011;43499;52.366;12.912;2023-09-18T01:25:19;5.55;;;3.30;;
57667;SDS011;43499;52.366;12.912;2023-09-18T01:26:20;2.92;;;2.58;;
57667;SDS011;43499;52.366;12.912;2023-09-18T01:27:21;4.60;;;2.88;;
57667;SDS011;43499;52.366;12.912;2023-09-18T01:28:23;3.78;;;2.78;;
57667;SDS011;43499;52.366;12.912;2023-09-18T01:29:24;4.25;;;2.88;;
57667;SDS011;43499;52.366;12.912;2023-09-18T01:30:25;4.20;;;2.47;;
57667;SDS011;43499;52.366;12.912;2023-09-18T01:31:27;3.65;;;2.60;;
57667;SDS011;43499;52.366;12.912;2023-09-18T01:32:29;3.92;;;2.53;;
57667;SDS011;43499;52.366;12.912;2023-09-18T01:33:32;4.90;;;2.55;;
57667;SDS011;43499;52.366;12.912;2023-09-18T01:34:36;5.70;;;3.38;;
57667;SDS011;43499;52.366;12.912;2023-09-18T01:35:42;4.72;;;2.63;;
57667;SDS011;43499;52.366;12.912;2023-09-18T01:36:45;3.58;;;2.47;;
57667;SDS011;43499;52.366;12.912;2023-09-18T01:37:47;3.88;;;2.58;;
57667;SDS011;43499;52.366;12.912;2023-09-18T01:38:48;3.80;;;2.97;;
57667;SDS011;43499;52.366;12.912;2023-09-18T01:39:51;4.60;;;2.40;;
57667;SDS011;43499;52.366;12.912;2023-09-18T01:40:53;3.17;;;2.25;;
57667;SDS011;43499;52.366;12.912;2023-09-18T01:41:55;7.45;;;3.25;;
57667;SDS011;43499;52.366;12.912;2023-09-18T01:42:56;4.00;;;2.65;;
57667;SDS011;43499;52.366;12.912;2023-09-18T01:43:57;4.35;;;2.70;;
57667;SDS011;43499;52.366;12.912;2023-09-18T01:44:58;4.75;;;2.67;;
57667;SDS011;43499;52.366;12.912;2023-09-18T01:45:59;3.10;;;2.78;;
57667;SDS011;43499;52.366;12.912;2023-09-18T01:47:01;4.85;;;3.03;;
57667;SDS011;43499;52.366;12.912;2023-09-18T01:48:05;4.30;;;2.88;;
57667;SDS011;43499;52.366;12.912;2023-09-18T01:49:07;5.22;;;2.90;;
57667;SDS011;43499;52.366;12.912;2023-09-18T01:50:08;4.38;;;2.80;;
57667;SDS011;43499;52.366;12.912;2023-09-18T01:51:13;3.83;;;2.95;;
57667;SDS011;43499;52.366;12.912;2023-09-18T01:52:14;3.03;;;2.67;;
57667;SDS011;43499;52.366;12.912;2023-09-18T01:54:17;4.80;;;2.55;;
57667;SDS011;43499;52.366;12.912;2023-09-18T01:55:18;5.43;;;2.65;;
57667;SDS011;43499;52.366;12.912;2023-09-18T01:56:19;4.18;;;2.88;;
57667;SDS011;43499;52.366;12.912;2023-09-18T01:57:20;3.15;;;2.80;;
57667;SDS011;43499;52.366;12.912;2023-09-18T01:58:21;5.35;;;2.45;;
57667;SDS011;43499;52.366;12.912;2023-09-18T01:59:22;5.75;;;3.50;;
57667;SDS011;43499;52.366;12.912;2023-09-18T02:00:24;3.90;;;3.10;;
57667;SDS011;43499;52.366;12.912;2023-09-18T02:01:25;6.47;;;3.10;;
57667;SDS011;43499;52.366;12.912;2023-09-18T02:02:26;3.63;;;3.30;;
57667;SDS011;43499;52.366;12.912;2023-09-18T02:04:29;3.72;;;3.20;;
57667;SDS011;43499;52.366;12.912;2023-09-18T02:05:31;5.93;;;3.35;;
57667;SDS011;43499;52.366;12.912;2023-09-18T02:06:33;4.88;;;3.28;;
57667;SDS011;43499;52.366;12.912;2023-09-18T02:07:34;5.82;;;3.10;;
57667;SDS011;43499;52.366;12.912;2023-09-18T02:08:36;5.45;;;2.85;;
57667;SDS011;43499;52.366;12.912;2023-09-18T02:09:37;4.53;;;3.13;;
57667;SDS011;43499;52.366;12.912;2023-09-18T02:10:38;6.18;;;2.75;;
57667;SDS011;43499;52.366;12.912;2023-09-18T02:11:40;5.38;;;2.70;;
57667;SDS011;43499;52.366;12.912;2023-09-18T02:12:42;5.07;;;3.28;;
57667;SDS011;43499;52.366;12.912;2023-09-18T02:13:43;5.40;;;2.97;;
57667;SDS011;43499;52.366;12.912;2023-09-18T02:14:44;5.32;;;2.70;;
57667;SDS011;43499;52.366;12.912;2023-09-18T02:15:46;4.03;;;2.72;;
57667;SDS011;43499;52.366;12.912;2023-09-18T02:16:47;4.40;;;3.40;;
57667;SDS011;43499;52.366;12.912;2023-09-18T02:17:49;4.38;;;3.00;;
57667;SDS011;43499;52.366;12.912;2023-09-18T02:18:50;6.50;;;2.85;;
57667;SDS011;43499;52.366;12.912;2023-09-18T02:19:51;4.97;;;2.97;;
57667;SDS011;43499;52.366;12.912;2023-09-18T02:20:53;4.25;;;3.10;;
57667;SDS011;43499;52.366;12.912;2023-09-18T02:21:55;4.15;;;2.80;;
57667;SDS011;43499;52.366;12.912;2023-09-18T02:22:58;4.07;;;2.90;;
57667;SDS011;43499;52.366;12.912;2023-09-18T02:23:59;6.85;;;3.10;;
57667;SDS011;43499;52.366;12.912;2023-09-18T02:25:00;3.90;;;3.00;;
57667;SDS011;43499;52.366;12.912;2023-09-18T02:26:01;6.38;;;3.50;;
57667;SDS011;43499;52.366;12.912;2023-09-18T02:27:05;3.92;;;3.13;;
57667;SDS011;43499;52.366;12.912;2023-09-18T02:28:07;4.10;;;3.00;;
57667;SDS011;43499;52.366;12.912;2023-09-18T02:29:08;4.07;;;3.10;;
57667;SDS011;43499;52.366;12.912;2023-09-18T02:30:12;3.58;;;2.85;;
57667;SDS011;43499;52.366;12.912;2023-09-18T02:31:13;3.67;;;2.63;;
57667;SDS011;43499;52.366;12.912;2023-09-18T02:32:14;7.13;;;3.13;;
57667;SDS011;43499;52.366;12.912;2023-09-18T02:33:16;4.45;;;3.38;;
57667;SDS011;43499;52.366;12.912;2023-09-18T02:34:17;5.20;;;3.08;;
57667;SDS011;43499;52.366;12.912;2023-09-18T02:35:20;4.05;;;3.13;;
57667;SDS011;43499;52.366;12.912;2023-09-18T02:36:21;4.75;;;2.97;;
57667;SDS011;43499;52.366;12.912;2023-09-18T02:37:23;6.18;;;3.30;;
57667;SDS011;43499;52.366;12.912;2023-09-18T02:38:25;5.95;;;3.45;;
57667;SDS011;43499;52.366;12.912;2023-09-18T02:39:27;6.22;;;2.88;;
57667;SDS011;43499;52.366;12.912;2023-09-18T02:40:28;4.00;;;3.08;;
57667;SDS011;43499;52.366;12.912;2023-09-18T02:41:30;3.63;;;3.15;;
57667;SDS011;43499;52.366;12.912;2023-09-18T02:42:31;4.38;;;2.88;;
57667;SDS011;43499;52.366;12.912;2023-09-18T02:43:33;4.38;;;3.17;;
57667;SDS011;43499;52.366;12.912;2023-09-18T02:44:34;4.97;;;2.72;;
57667;SDS011;43499;52.366;12.912;2023-09-18T02:45:35;4.65;;;2.83;;
57667;SDS011;43499;52.366;12.912;2023-09-18T02:46:36;3.72;;;2.53;;
57667;SDS011;43499;52.366;12.912;2023-09-18T02:47:38;4.03;;;3.03;;
57667;SDS011;43499;52.366;12.912;2023-09-18T02:48:42;4.40;;;2.65;;
57667;SDS011;43499;52.366;12.912;2023-09-18T02:49:43;4.82;;;3.30;;
57667;SDS011;43499;52.366;12.912;2023-09-18T02:50:44;3.80;;;3.40;;
57667;SDS011;43499;52.366;12.912;2023-09-18T02:51:46;6.28;;;2.80;;
57667;SDS011;43499;52.366;12.912;2023-09-18T02:52:47;2.63;;;2.40;;
57667;SDS011;43499;52.366;12.912;2023-09-18T02:53:48;4.57;;;2.83;;
57667;SDS011;43499;52.366;12.912;2023-09-18T02:54:49;4.25;;;3.00;;
57667;SDS011;43499;52.366;12.912;2023-09-18T02:55:50;5.93;;;3.20;;
57667;SDS011;43499;52.366;12.912;2023-09-18T02:56:53;4.32;;;2.80;;
57667;SDS011;43499;52.366;12.912;2023-09-18T02:57:54;3.63;;;2.97;;
57667;SDS011;43499;52.366;12.912;2023-09-18T02:58:55;3.55;;;2.83;;
57667;SDS011;43499;52.366;12.912;2023-09-18T02:59:56;7.53;;;3.47;;
57667;SDS011;43499;52.366;12.912;2023-09-18T03:00:57;3.80;;;3.13;;
57667;SDS011;43499;52.366;12.912;2023-09-18T03:02:04;4.68;;;3.00;;
57667;SDS011;43499;52.366;12.912;2023-09-18T03:03:06;6.05;;;2.72;;
57667;SDS011;43499;52.366;12.912;2023-09-18T03:04:07;6.13;;;3.15;;
57667;SDS011;43499;52.366;12.912;2023-09-18T03:05:08;3.72;;;3.00;;
57667;SDS011;43499;52.366;12.912;2023-09-18T03:06:09;2.60;;;2.40;;
57667;SDS011;43499;52.366;12.912;2023-09-18T03:07:14;4.35;;;3.20;;
57667;SDS011;43499;52.366;12.912;2023-09-18T03:08:17;3.72;;;2.90;;
57667;SDS011;43499;52.366;12.912;2023-09-18T03:09:18;3.55;;;3.17;;
57667;SDS011;43499;52.366;12.912;2023-09-18T03:10:19;5.22;;;3.78;;
57667;SDS011;43499;52.366;12.912;2023-09-18T03:11:21;4.05;;;2.85;;
57667;SDS011;43499;52.366;12.912;2023-09-18T03:12:22;4.10;;;3.20;;
57667;SDS011;43499;52.366;12.912;2023-09-18T03:13:25;4.60;;;2.80;;
57667;SDS011;43499;52.366;12.912;2023-09-18T03:14:27;7.78;;;2.67;;
57667;SDS011;43499;52.366;12.912;2023-09-18T03:15:28;3.33;;;2.90;;
57667;SDS011;43499;52.366;12.912;2023-09-18T03:17:34;3.95;;;3.65;;
57667;SDS011;43499;52.366;12.912;2023-09-18T03:18:35;3.78;;;2.85;;
57667;SDS011;43499;52.366;12.912;2023-09-18T03:19:36;4.75;;;2.95;;
57667;SDS011;43499;52.366;12.912;2023-09-18T03:20:37;5.43;;;3.88;;
57667;SDS011;43499;52.366;12.912;2023-09-18T03:21:38;4.13;;;2.92;;
57667;SDS011;43499;52.366;12.912;2023-09-18T03:22:40;3.38;;;3.00;;
57667;SDS011;43499;52.366;12.912;2023-09-18T03:23:41;5.25;;;3.42;;
57667;SDS011;43499;52.366;12.912;2023-09-18T03:24:42;5.03;;;3.08;;
57667;SDS011;43499;52.366;12.912;2023-09-18T03:25:43;5.47;;;3.03;;
57667;SDS011;43499;52.366;12.912;2023-09-18T03:26:44;4.32;;;3.42;;
57667;SDS011;43499;52.366;12.912;2023-09-18T03:27:46;3.75;;;3.03;;
57667;SDS011;43499;52.366;12.912;2023-09-18T03:28:47;4.28;;;3.13;;
57667;SDS011;43499;52.366;12.912;2023-09-18T03:29:48;6.45;;;3.05;;
57667;SDS011;43499;52.366;12.912;2023-09-18T03:30:49;3.65;;;3.05;;
57667;SDS011;43499;52.366;12.912;2023-09-18T03:31:53;8.23;;;3.30;;
57667;SDS011;43499;52.366;12.912;2023-09-18T03:32:56;6.25;;;3.00;;
57667;SDS011;43499;52.366;12.912;2023-09-18T03:33:59;4.20;;;3.00;;
57667;SDS011;43499;52.366;12.912;2023-09-18T03:35:02;3.67;;;3.13;;
57667;SDS011;43499;52.366;12.912;2023-09-18T03:36:04;5.25;;;3.17;;
57667;SDS011;43499;52.366;12.912;2023-09-18T03:37:08;3.25;;;2.92;;
57667;SDS011;43499;52.366;12.912;2023-09-18T03:38:10;4.53;;;3.47;;
57667;SDS011;43499;52.366;12.912;2023-09-18T03:39:11;4.13;;;3.35;;
57667;SDS011;43499;52.366;12.912;2023-09-18T03:40:12;3.72;;;3.05;;
57667;SDS011;43499;52.366;12.912;2023-09-18T03:41:14;4.50;;;3.42;;
57667;SDS011;43499;52.366;12.912;2023-09-18T03:42:15;3.90;;;2.92;;
57667;SDS011;43499;52.366;12.912;2023-09-18T03:43:16;3.45;;;2.88;;
57667;SDS011;43499;52.366;12.912;2023-09-18T03:44:18;6.30;;;2.97;;
57667;SDS011;43499;52.366;12.912;2023-09-18T03:45:19;5.22;;;3.05;;
57667;SDS011;43499;52.366;12.912;2023-09-18T03:46:23;3.85;;;2.55;;
57667;SDS011;43499;52.366;12.912;2023-09-18T03:47:24;3.45;;;2.83;;
57667;SDS011;43499;52.366;12.912;2023-09-18T03:48:25;4.93;;;2.92;;
57667;SDS011;43499;52.366;12.912;2023-09-18T03:49:27;3.33;;;2.78;;
57667;SDS011;43499;52.366;12.912;2023-09-18T03:50:29;5.57;;;3.42;;
57667;SDS011;43499;52.366;12.912;2023-09-18T03:51:30;3.47;;;2.78;;
57667;SDS011;43499;52.366;12.912;2023-09-18T03:52:31;4.57;;;2.63;;
57667;SDS011;43499;52.366;12.912;2023-09-18T03:53:32;7.07;;;3.00;;
57667;SDS011;43499;52.366;12.912;2023-09-18T03:55:35;4.18;;;2.88;;
57667;SDS011;43499;52.366;12.912;2023-09-18T03:56:36;5.00;;;3.08;;
57667;SDS011;43499;52.366;12.912;2023-09-18T03:57:38;3.85;;;2.90;;
57667;SDS011;43499;52.366;12.912;2023-09-18T03:58:39;3.83;;;3.10;;
57667;SDS011;43499;52.366;12.912;2023-09-18T03:59:40;4.93;;;3.28;;
57667;SDS011;43499;52.366;12.912;2023-09-18T04:00:42;6.15;;;3.20;;
57667;SDS011;43499;52.366;12.912;2023-09-18T04:01:43;3.15;;;2.70;;
57667;SDS011;43499;52.366;12.912;2023-09-18T04:02:44;3.83;;;3.13;;
57667;SDS011;43499;52.366;12.912;2023-09-18T04:03:45;4.35;;;3.75;;
57667;SDS011;43499;52.366;12.912;2023-09-18T04:04:46;2.65;;;2.45;;
57667;SDS011;43499;52.366;12.912;2023-09-18T04:05:47;11.48;;;3.65;;
57667;SDS011;43499;52.366;12.912;2023-09-18T04:06:48;4.57;;;3.40;;
57667;SDS011;43499;52.366;12.912;2023-09-18T04:07:50;4.97;;;3.40;;
57667;SDS011;43499;52.366;12.912;2023-09-18T04:08:52;3.72;;;3.13;;
57667;SDS011;43499;52.366;12.912;2023-09-18T04:09:53;6.05;;;3.72;;
57667;SDS011;43499;52.366;12.912;2023-09-18T04:10:54;6.85;;;3.33;;
57667;SDS011;43499;52.366;12.912;2023-09-18T04:11:56;5.22;;;3.40;;
57667;SDS011;43499;52.366;12.912;2023-09-18T04:12:58;4.07;;;2.95;;
57667;SDS011;43499;52.366;12.912;2023-09-18T04:14:00;5.38;;;3.80;;
57667;SDS011;43499;52.366;12.912;2023-09-18T04:16:04;3.40;;;3.05;;
57667;SDS011;43499;52.366;12.912;2023-09-18T04:18:06;6.93;;;3.03;;
57667;SDS011;43499;52.366;12.912;2023-09-18T04:19:07;5.03;;;3.85;;
57667;SDS011;43499;52.366;12.912;2023-09-18T04:20:09;4.65;;;3.60;;
57667;SDS011;43499;52.366;12.912;2023-09-18T04:21:11;4.88;;;3.38;;
57667;SDS011;43499;52.366;12.912;2023-09-18T04:22:12;4.25;;;3.40;;
57667;SDS011;43499;52.366;12.912;2023-09-18T04:23:17;5.57;;;3.67;;
57667;SDS011;43499;52.366;12.912;2023-09-18T04:24:20;5.90;;;4.72;;
57667;SDS011;43499;52.366;12.912;2023-09-18T04:25:22;4.68;;;3.90;;
57667;SDS011;43499;52.366;12.912;2023-09-18T04:26:23;4.97;;;3.55;;
57667;SDS011;43499;52.366;12.912;2023-09-18T04:27:25;5.60;;;3.72;;
57667;SDS011;43499;52.366;12.912;2023-09-18T04:28:26;5.55;;;3.80;;
57667;SDS011;43499;52.366;12.912;2023-09-18T04:29:27;4.10;;;3.30;;
57667;SDS011;43499;52.366;12.912;2023-09-18T04:30:28;5.85;;;3.75;;
57667;SDS011;43499;52.366;12.912;2023-09-18T04:31:29;6.32;;;3.67;;
57667;SDS011;43499;52.366;12.912;2023-09-18T04:32:31;6.53;;;4.60;;
57667;SDS011;43499;52.366;12.912;2023-09-18T04:33:32;7.63;;;3.90;;
57667;SDS011;43499;52.366;12.912;2023-09-18T04:34:33;6.60;;;3.63;;
57667;SDS011;43499;52.366;12.912;2023-09-18T04:35:35;4.18;;;3.72;;
57667;SDS011;43499;52.366;12.912;2023-09-18T04:36:37;5.38;;;3.90;;
57667;SDS011;43499;52.366;12.912;2023-09-18T04:37:39;7.05;;;4.18;;
57667;SDS011;43499;52.366;12.912;2023-09-18T04:38:42;7.18;;;4.55;;
57667;SDS011;43499;52.366;12.912;2023-09-18T04:39:43;4.85;;;3.75;;
57667;SDS011;43499;52.366;12.912;2023-09-18T04:40:45;4.53;;;3.78;;
57667;SDS011;43499;52.366;12.912;2023-09-18T04:41:47;7.13;;;4.05;;
57667;SDS011;43499;52.366;12.912;2023-09-18T04:42:48;11.00;;;3.65;;
57667;SDS011;43499;52.366;12.912;2023-09-18T04:43:49;7.20;;;3.78;;
57667;SDS011;43499;52.366;12.912;2023-09-18T04:44:51;6.72;;;3.55;;
57667;SDS011;43499;52.366;12.912;2023-09-18T04:45:53;4.53;;;3.47;;
57667;SDS011;43499;52.366;12.912;2023-09-18T04:46:54;3.90;;;3.45;;
57667;SDS011;43499;52.366;12.912;2023-09-18T04:47:55;5.05;;;4.22;;
57667;SDS011;43499;52.366;12.912;2023-09-18T04:48:57;6.28;;;4.03;;
57667;SDS011;43499;52.366;12.912;2023-09-18T04:49:58;4.68;;;3.72;;
57667;SDS011;43499;52.366;12.912;2023-09-18T04:50:59;4.93;;;3.80;;
57667;SDS011;43499;52.366;12.912;2023-09-18T04:52:01;5.05;;;3.75;;
57667;SDS011;43499;52.366;12.912;2023-09-18T04:53:03;4.88;;;4.03;;
57667;SDS011;43499;52.366;12.912;2023-09-18T04:54:05;5.20;;;3.83;;
57667;SDS011;43499;52.366;12.912;2023-09-18T04:55:07;5.70;;;3.90;;
57667;SDS011;43499;52.366;12.912;2023-09-18T04:56:09;7.43;;;3.70;;
57667;SDS011;43499;52.366;12.912;2023-09-18T04:57:11;4.63;;;4.18;;
57667;SDS011;43499;52.366;12.912;2023-09-18T04:58:13;5.53;;;4.40;;
57667;SDS011;43499;52.366;12.912;2023-09-18T04:59:14;6.18;;;4.35;;
57667;SDS011;43499;52.366;12.912;2023-09-18T05:00:17;7.20;;;4.30;;
57667;SDS011;43499;52.366;12.912;2023-09-18T05:01:20;8.60;;;4.25;;
57667;SDS011;43499;52.366;12.912;2023-09-18T05:02:22;5.30;;;4.47;;
57667;SDS011;43499;52.366;12.912;2023-09-18T05:03:26;5.97;;;3.90;;
57667;SDS011;43499;52.366;12.912;2023-09-18T05:04:28;5.15;;;4.63;;
57667;SDS011;43499;52.366;12.912;2023-09-18T05:05:29;5.15;;;3.95;;
57667;SDS011;43499;52.366;12.912;2023-09-18T05:06:30;6.07;;;4.50;;
57667;SDS011;43499;52.366;12.912;2023-09-18T05:07:32;7.00;;;4.05;;
57667;SDS011;43499;52.366;12.912;2023-09-18T05:08:33;5.38;;;4.38;;
57667;SDS011;43499;52.366;12.912;2023-09-18T05:09:35;5.90;;;4.43;;
57667;SDS011;43499;52.366;12.912;2023-09-18T05:10:36;7.00;;;4.07;;
57667;SDS011;43499;52.366;12.912;2023-09-18T05:11:38;6.07;;;4.50;;
57667;SDS011;43499;52.366;12.912;2023-09-18T05:12:42;5.60;;;4.35;;
57667;SDS011;43499;52.366;12.912;2023-09-18T05:13:43;7.38;;;4.45;;
57667;SDS011;43499;52.366;12.912;2023-09-18T05:14:44;7.78;;;4.63;;
57667;SDS011;43499;52.366;12.912;2023-09-18T05:15:45;9.85;;;5.80;;
57667;SDS011;43499;52.366;12.912;2023-09-18T05:16:47;6.28;;;4.47;;
57667;SDS011;43499;52.366;12.912;2023-09-18T05:17:48;5.93;;;3.80;;
57667;SDS011;43499;52.366;12.912;2023-09-18T05:18:53;5.22;;;4.50;;
57667;SDS011;43499;52.366;12.912;2023-09-18T05:19:54;7.20;;;5.32;;
57667;SDS011;43499;52.366;12.912;2023-09-18T05:20:55;5.82;;;4.85;;
57667;SDS011;43499;52.366;12.912;2023-09-18T05:21:56;6.97;;;5.15;;
57667;SDS011;43499;52.366;12.912;2023-09-18T05:22:58;6.50;;;4.30;;
57667;SDS011;43499;52.366;12.912;2023-09-18T05:24:00;6.25;;;4.50;;
57667;SDS011;43499;52.366;12.912;2023-09-18T05:25:01;8.23;;;4.53;;
57667;SDS011;43499;52.366;12.912;2023-09-18T05:26:04;6.47;;;4.40;;
57667;SDS011;43499;52.366;12.912;2023-09-18T05:27:05;6.70;;;5.65;;
57667;SDS011;43499;52.366;12.912;2023-09-18T05:28:11;7.28;;;4.63;;
57667;SDS011;43499;52.366;12.912;2023-09-18T05:29:12;5.47;;;4.68;;
57667;SDS011;43499;52.366;12.912;2023-09-18T05:30:14;6.22;;;4.25;;
57667;SDS011;43499;52.366;12.912;2023-09-18T05:31:16;6.75;;;4.57;;
57667;SDS011;43499;52.366;12.912;2023-09-18T05:32:17;6.45;;;4.47;;
57667;SDS011;43499;52.366;12.912;2023-09-18T05:33:19;7.28;;;4.65;;
57667;SDS011;43499;52.366;12.912;2023-09-18T05:34:20;7.07;;;4.68;;
57667;SDS011;43499;52.366;12.912;2023-09-18T05:35:21;8.20;;;3.85;;
57667;SDS011;43499;52.366;12.912;2023-09-18T05:36:24;6.55;;;4.63;;
57667;SDS011;43499;52.366;12.912;2023-09-18T05:37:25;6.38;;;4.22;;
57667;SDS011;43499;52.366;12.912;2023-09-18T05:38:26;7.55;;;5.03;;
57667;SDS011;43499;52.366;12.912;2023-09-18T05:39:27;5.45;;;3.90;;
57667;SDS011;43499;52.366;12.912;2023-09-18T05:40:28;5.65;;;4.07;;
57667;SDS011;43499;52.366;12.912;2023-09-18T05:41:30;7.75;;;3.90;;
57667;SDS011;43499;52.366;12.912;2023-09-18T05:42:32;6.50;;;4.47;;
57667;SDS011;43499;52.366;12.912;2023-09-18T05:43:33;4.63;;;3.80;;
57667;SDS011;43499;52.366;12.912;2023-09-18T05:44:34;4.43;;;3.83;;
57667;SDS011;43499;52.366;12.912;2023-09-18T05:45:35;5.72;;;3.90;;
57667;SDS011;43499;52.366;12.912;2023-09-18T05:46:36;8.18;;;4.60;;
57667;SDS011;43499;52.366;12.912;2023-09-18T05:47:38;7.85;;;4.10;;
57667;SDS011;43499;52.366;12.912;2023-09-18T05:48:39;7.10;;;4.70;;
57667;SDS011;43499;52.366;12.912;2023-09-18T05:49:40;5.35;;;4.13;;
57667;SDS011;43499;52.366;12.912;2023-09-18T05:50:41;6.70;;;4.47;;
57667;SDS011;43499;52.366;12.912;2023-09-18T05:51:42;6.75;;;4.35;;
57667;SDS011;43499;52.366;12.912;2023-09-18T05:52:44;7.47;;;4.70;;
57667;SDS011;43499;52.366;12.912;2023-09-18T05:53:49;5.10;;;4.13;;
57667;SDS011;43499;52.366;12.912;2023-09-18T05:54:51;8.43;;;5.25;;
57667;SDS011;43499;52.366;12.912;2023-09-18T05:55:52;5.07;;;4.30;;
57667;SDS011;43499;52.366;12.912;2023-09-18T05:56:53;6.22;;;5.47;;
57667;SDS011;43499;52.366;12.912;2023-09-18T05:57:54;6.05;;;4.28;;
57667;SDS011;43499;52.366;12.912;2023-09-18T05:59:56;8.93;;;4.38;;
57667;SDS011;43499;52.366;12.912;2023-09-18T06:01:00;7.05;;;4.35;;
57667;SDS011;43499;52.366;12.912;2023-09-18T06:02:01;12.25;;;5.13;;
57667;SDS011;43499;52.366;12.912;2023-09-18T06:03:03;8.38;;;4.93;;
57667;SDS011;43499;52.366;12.912;2023-09-18T06:04:06;7.00;;;4.65;;
57667;SDS011;43499;52.366;12.912;2023-09-18T06:05:07;8.13;;;5.47;;
57667;SDS011;43499;52.366;12.912;2023-09-18T06:06:11;5.10;;;4.05;;
57667;SDS011;43499;52.366;12.912;2023-09-18T06:07:13;8.15;;;4.95;;
57667;SDS011;43499;52.366;12.912;2023-09-18T06:08:14;5.57;;;4.47;;
57667;SDS011;43499;52.366;12.912;2023-09-18T06:09:15;6.05;;;4.57;;
57667;SDS011;43499;52.366;12.912;2023-09-18T06:11:19;6.30;;;3.90;;
57667;SDS011;43499;52.366;12.912;2023-09-18T06:12:21;6.85;;;4.45;;
57667;SDS011;43499;52.366;12.912;2023-09-18T06:13:23;4.78;;;4.15;;
57667;SDS011;43499;52.366;12.912;2023-09-18T06:14:25;8.15;;;4.57;;
57667;SDS011;43499;52.366;12.912;2023-09-18T06:15:26;5.97;;;4.00;;
57667;SDS011;43499;52.366;12.912;2023-09-18T06:16:27;5.18;;;4.15;;
57667;SDS011;43499;52.366;12.912;2023-09-18T06:17:28;4.32;;;3.90;;
57667;SDS011;43499;52.366;12.912;2023-09-18T06:18:29;7.22;;;4.25;;